PAL1805 RPLL-RPMD
Flight info
| Callsign | PAL1805 |
|---|---|
| Flight time | 1h 23m |
| Altitude | 35000 |
| Route | IPATA2R IPATA B462 MASBA W9A BN W9 RIMAR RIMAR2R |
| Aircraft | A321/M-SDE3FGHIRWY/LB1 |
Departure
| Time | 2026-05-07 12:11 |
|---|---|
| Airport | Ninoy Aquino International Airport (RPLL) |
Arrival
| Time | 2026-05-07 13:34 |
|---|---|
| Airport | Francisco Bangoy International Airport (RPMD) |
| Time | Latitude | Longitude | Altitude | Speed | Heading |
|---|---|---|---|---|---|
| 2026-05-07 11:56 | 14.50484 | 121.00597 | 82 ft | 0 kts | 15° |
| 2026-05-07 12:01 | 14.50473 | 121.00594 | 82 ft | 2 kts | 14° |
| 2026-05-07 12:02 | 14.50458 | 121.00590 | 82 ft | 2 kts | 15° |
| 2026-05-07 12:02 | 14.50444 | 121.00586 | 82 ft | 2 kts | 14° |
| 2026-05-07 12:02 | 14.50429 | 121.00582 | 82 ft | 2 kts | 14° |
| 2026-05-07 12:02 | 14.50414 | 121.00578 | 82 ft | 2 kts | 14° |
| 2026-05-07 12:03 | 14.50405 | 121.00575 | 82 ft | 2 kts | 12° |
| 2026-05-07 12:03 | 14.50390 | 121.00576 | 82 ft | 2 kts | 340° |
| 2026-05-07 12:03 | 14.50376 | 121.00584 | 82 ft | 2 kts | 317° |
| 2026-05-07 12:03 | 14.50367 | 121.00596 | 82 ft | 2 kts | 292° |
| 2026-05-07 12:04 | 14.50364 | 121.00611 | 82 ft | 2 kts | 268° |
| 2026-05-07 12:04 | 14.50367 | 121.00626 | 82 ft | 1 kts | 245° |
| 2026-05-07 12:04 | 14.50370 | 121.00632 | 82 ft | 1 kts | 238° |
| 2026-05-07 12:04 | 14.50371 | 121.00633 | 82 ft | 0 kts | 239° |
| 2026-05-07 12:06 | 14.50363 | 121.00620 | 82 ft | 4 kts | 240° |
| 2026-05-07 12:07 | 14.50336 | 121.00571 | 82 ft | 9 kts | 240° |
| 2026-05-07 12:07 | 14.50303 | 121.00511 | 82 ft | 10 kts | 240° |
| 2026-05-07 12:07 | 14.50266 | 121.00445 | 82 ft | 10 kts | 240° |
| 2026-05-07 12:07 | 14.50227 | 121.00375 | 82 ft | 11 kts | 241° |
| 2026-05-07 12:08 | 14.50167 | 121.00335 | 82 ft | 11 kts | 172° |
| 2026-05-07 12:08 | 14.50103 | 121.00299 | 82 ft | 11 kts | 237° |
| 2026-05-07 12:08 | 14.50061 | 121.00223 | 82 ft | 12 kts | 240° |
| 2026-05-07 12:08 | 14.50018 | 121.00146 | 82 ft | 12 kts | 240° |
| 2026-05-07 12:09 | 14.49973 | 121.00066 | 82 ft | 13 kts | 240° |
| 2026-05-07 12:09 | 14.49928 | 120.99987 | 82 ft | 7 kts | 238° |
| 2026-05-07 12:09 | 14.49882 | 120.99963 | 82 ft | 8 kts | 170° |
| 2026-05-07 12:09 | 14.49828 | 120.99990 | 82 ft | 8 kts | 152° |
| 2026-05-07 12:10 | 14.49803 | 121.00040 | 82 ft | 8 kts | 78° |
| 2026-05-07 12:10 | 14.49839 | 121.00113 | 82 ft | 21 kts | 60° |
| 2026-05-07 12:10 | 14.50035 | 121.00465 | 82 ft | 89 kts | 60° |
| 2026-05-07 12:10 | 14.50451 | 121.01215 | 82 ft | 148 kts | 60° |
| 2026-05-07 12:11 | 14.51046 | 121.02257 | 267 ft | 178 kts | 62° |
| 2026-05-07 12:11 | 14.51657 | 121.03355 | 870 ft | 178 kts | 63° |
| 2026-05-07 12:11 | 14.52239 | 121.04459 | 1592 ft | 173 kts | 63° |
| 2026-05-07 12:11 | 14.52805 | 121.05530 | 2127 ft | 172 kts | 62° |
| 2026-05-07 12:12 | 14.53422 | 121.06617 | 2605 ft | 174 kts | 61° |
| 2026-05-07 12:12 | 14.54035 | 121.07689 | 3069 ft | 175 kts | 61° |
| 2026-05-07 12:12 | 14.54656 | 121.08792 | 3443 ft | 182 kts | 61° |
| 2026-05-07 12:12 | 14.55311 | 121.09964 | 3712 ft | 197 kts | 60° |
| 2026-05-07 12:13 | 14.56022 | 121.11240 | 3991 ft | 211 kts | 60° |
| 2026-05-07 12:13 | 14.56765 | 121.12620 | 4211 ft | 230 kts | 65° |
| 2026-05-07 12:13 | 14.57303 | 121.14250 | 4483 ft | 248 kts | 77° |
| 2026-05-07 12:13 | 14.57569 | 121.16070 | 4878 ft | 264 kts | 82° |
| 2026-05-07 12:14 | 14.57777 | 121.17958 | 5495 ft | 268 kts | 82° |
| 2026-05-07 12:14 | 14.57984 | 121.19871 | 6159 ft | 270 kts | 82° |
| 2026-05-07 12:14 | 14.58197 | 121.21783 | 6804 ft | 272 kts | 82° |
| 2026-05-07 12:14 | 14.58415 | 121.23717 | 7480 ft | 274 kts | 84° |
| 2026-05-07 12:15 | 14.58246 | 121.25668 | 8070 ft | 279 kts | 107° |
| 2026-05-07 12:15 | 14.57237 | 121.27366 | 8720 ft | 284 kts | 132° |
| 2026-05-07 12:15 | 14.55674 | 121.28650 | 9328 ft | 287 kts | 141° |
| 2026-05-07 12:15 | 14.54038 | 121.29876 | 9870 ft | 291 kts | 141° |
| 2026-05-07 12:16 | 14.52399 | 121.31110 | 10366 ft | 296 kts | 141° |
| 2026-05-07 12:16 | 14.50714 | 121.32389 | 10628 ft | 309 kts | 141° |
| 2026-05-07 12:16 | 14.48925 | 121.33754 | 10875 ft | 323 kts | 141° |
| 2026-05-07 12:16 | 14.47080 | 121.35164 | 11209 ft | 333 kts | 141° |
| 2026-05-07 12:17 | 14.45210 | 121.36594 | 11711 ft | 336 kts | 141° |
| 2026-05-07 12:17 | 14.43341 | 121.38023 | 12240 ft | 337 kts | 141° |
| 2026-05-07 12:17 | 14.41452 | 121.39470 | 12747 ft | 339 kts | 142° |
| 2026-05-07 12:17 | 14.39550 | 121.40927 | 13225 ft | 341 kts | 142° |
| 2026-05-07 12:18 | 14.37630 | 121.42396 | 13696 ft | 344 kts | 142° |
| 2026-05-07 12:18 | 14.35705 | 121.43869 | 14148 ft | 346 kts | 142° |
| 2026-05-07 12:18 | 14.33774 | 121.45348 | 14579 ft | 349 kts | 142° |
| 2026-05-07 12:18 | 14.31807 | 121.46854 | 14998 ft | 353 kts | 142° |
| 2026-05-07 12:19 | 14.29821 | 121.48373 | 15423 ft | 355 kts | 142° |
| 2026-05-07 12:19 | 14.27844 | 121.49886 | 15833 ft | 358 kts | 142° |
| 2026-05-07 12:19 | 14.25830 | 121.51425 | 16230 ft | 361 kts | 142° |
| 2026-05-07 12:19 | 14.23807 | 121.52966 | 16606 ft | 364 kts | 142° |
| 2026-05-07 12:20 | 14.21742 | 121.54539 | 16985 ft | 367 kts | 142° |
| 2026-05-07 12:20 | 14.19693 | 121.56100 | 17358 ft | 369 kts | 142° |
| 2026-05-07 12:20 | 14.17627 | 121.57674 | 17741 ft | 371 kts | 142° |
| 2026-05-07 12:20 | 14.15531 | 121.59270 | 18131 ft | 373 kts | 142° |
| 2026-05-07 12:21 | 14.13433 | 121.60869 | 18511 ft | 375 kts | 142° |
| 2026-05-07 12:21 | 14.11329 | 121.62470 | 18881 ft | 378 kts | 142° |
| 2026-05-07 12:21 | 14.09200 | 121.64090 | 19251 ft | 380 kts | 142° |
| 2026-05-07 12:21 | 14.07082 | 121.65703 | 19614 ft | 381 kts | 142° |
| 2026-05-07 12:22 | 14.04915 | 121.67357 | 19978 ft | 383 kts | 142° |
| 2026-05-07 12:22 | 14.02749 | 121.69009 | 20337 ft | 385 kts | 142° |
| 2026-05-07 12:22 | 14.00587 | 121.70660 | 20672 ft | 388 kts | 142° |
| 2026-05-07 12:22 | 13.98419 | 121.72315 | 20996 ft | 390 kts | 142° |
| 2026-05-07 12:23 | 13.96218 | 121.73993 | 21321 ft | 392 kts | 142° |
| 2026-05-07 12:23 | 13.94027 | 121.75663 | 21645 ft | 394 kts | 142° |
| 2026-05-07 12:23 | 13.91827 | 121.77339 | 21955 ft | 396 kts | 142° |
| 2026-05-07 12:23 | 13.89583 | 121.79050 | 22265 ft | 398 kts | 141° |
| 2026-05-07 12:24 | 13.87449 | 121.80840 | 22559 ft | 399 kts | 137° |
| 2026-05-07 12:24 | 13.85448 | 121.82816 | 22852 ft | 401 kts | 133° |
| 2026-05-07 12:24 | 13.83592 | 121.84964 | 23146 ft | 402 kts | 129° |
| 2026-05-07 12:24 | 13.81772 | 121.87190 | 23437 ft | 404 kts | 129° |
| 2026-05-07 12:25 | 13.79972 | 121.89407 | 23719 ft | 406 kts | 129° |
| 2026-05-07 12:25 | 13.78166 | 121.91633 | 24003 ft | 408 kts | 129° |
| 2026-05-07 12:25 | 13.76351 | 121.93863 | 24280 ft | 410 kts | 129° |
| 2026-05-07 12:25 | 13.74496 | 121.96140 | 24550 ft | 412 kts | 129° |
| 2026-05-07 12:26 | 13.72656 | 121.98396 | 24815 ft | 414 kts | 129° |
| 2026-05-07 12:26 | 13.70797 | 122.00674 | 25074 ft | 416 kts | 129° |
| 2026-05-07 12:26 | 13.68932 | 122.02961 | 25325 ft | 418 kts | 129° |
| 2026-05-07 12:26 | 13.67053 | 122.05260 | 25572 ft | 420 kts | 129° |
| 2026-05-07 12:27 | 13.65158 | 122.07580 | 25820 ft | 422 kts | 129° |
| 2026-05-07 12:27 | 13.63270 | 122.09888 | 26073 ft | 424 kts | 129° |
| 2026-05-07 12:27 | 13.61369 | 122.12212 | 26342 ft | 426 kts | 129° |
| 2026-05-07 12:27 | 13.59453 | 122.14554 | 26620 ft | 427 kts | 129° |
| 2026-05-07 12:28 | 13.57539 | 122.16893 | 26871 ft | 428 kts | 129° |
| 2026-05-07 12:28 | 13.55618 | 122.19240 | 27115 ft | 430 kts | 130° |
| 2026-05-07 12:28 | 13.53701 | 122.21582 | 27357 ft | 432 kts | 130° |
| 2026-05-07 12:28 | 13.51749 | 122.23965 | 27602 ft | 433 kts | 130° |
| 2026-05-07 12:29 | 13.49798 | 122.26346 | 27837 ft | 435 kts | 130° |
| 2026-05-07 12:29 | 13.47863 | 122.28709 | 28061 ft | 437 kts | 130° |
| 2026-05-07 12:29 | 13.45901 | 122.31101 | 28290 ft | 438 kts | 130° |
| 2026-05-07 12:29 | 13.43924 | 122.33513 | 28511 ft | 440 kts | 130° |
| 2026-05-07 12:30 | 13.41934 | 122.35938 | 28727 ft | 442 kts | 130° |
| 2026-05-07 12:30 | 13.39954 | 122.38353 | 28953 ft | 443 kts | 130° |
| 2026-05-07 12:30 | 13.37988 | 122.40749 | 29174 ft | 444 kts | 130° |
| 2026-05-07 12:30 | 13.35975 | 122.43201 | 29395 ft | 445 kts | 131° |
| 2026-05-07 12:31 | 13.33992 | 122.45616 | 29604 ft | 447 kts | 131° |
| 2026-05-07 12:31 | 13.31969 | 122.48079 | 29817 ft | 448 kts | 131° |
| 2026-05-07 12:31 | 13.29971 | 122.50510 | 30027 ft | 449 kts | 131° |
| 2026-05-07 12:31 | 13.27938 | 122.52984 | 30225 ft | 450 kts | 131° |
| 2026-05-07 12:32 | 13.25913 | 122.55446 | 30432 ft | 451 kts | 131° |
| 2026-05-07 12:32 | 13.23890 | 122.57906 | 30630 ft | 452 kts | 131° |
| 2026-05-07 12:32 | 13.21857 | 122.60378 | 30822 ft | 453 kts | 131° |
| 2026-05-07 12:32 | 13.19845 | 122.62825 | 31024 ft | 454 kts | 131° |
| 2026-05-07 12:33 | 13.15780 | 122.67764 | 31559 ft | 451 kts | 132° |
| 2026-05-07 12:33 | 13.13749 | 122.70232 | 31812 ft | 450 kts | 132° |
| 2026-05-07 12:33 | 13.11737 | 122.72676 | 32048 ft | 450 kts | 132° |
| 2026-05-07 12:34 | 13.09708 | 122.75139 | 32278 ft | 449 kts | 132° |
| 2026-05-07 12:34 | 13.07694 | 122.77582 | 32512 ft | 449 kts | 133° |
| 2026-05-07 12:34 | 13.05679 | 122.80026 | 32778 ft | 448 kts | 133° |
| 2026-05-07 12:34 | 13.03683 | 122.82445 | 33044 ft | 447 kts | 133° |
| 2026-05-07 12:35 | 13.01647 | 122.84912 | 33289 ft | 447 kts | 133° |
| 2026-05-07 12:35 | 12.99639 | 122.87344 | 33495 ft | 448 kts | 133° |
| 2026-05-07 12:35 | 12.97613 | 122.89797 | 33694 ft | 449 kts | 133° |
| 2026-05-07 12:35 | 12.95607 | 122.92226 | 33905 ft | 450 kts | 132° |
| 2026-05-07 12:36 | 12.93586 | 122.94675 | 34117 ft | 450 kts | 132° |
| 2026-05-07 12:36 | 12.91567 | 122.97121 | 34327 ft | 451 kts | 132° |
| 2026-05-07 12:36 | 12.89513 | 122.99606 | 34544 ft | 451 kts | 132° |
| 2026-05-07 12:36 | 12.87483 | 123.02065 | 34750 ft | 452 kts | 133° |
| 2026-05-07 12:37 | 12.83367 | 123.07043 | 34852 ft | 454 kts | 132° |
| 2026-05-07 12:37 | 12.79240 | 123.12032 | 34857 ft | 462 kts | 132° |
| 2026-05-07 12:38 | 12.75040 | 123.17104 | 34857 ft | 467 kts | 132° |
| 2026-05-07 12:38 | 12.70857 | 123.22156 | 34858 ft | 468 kts | 132° |
| 2026-05-07 12:39 | 12.66637 | 123.27251 | 34856 ft | 468 kts | 132° |
| 2026-05-07 12:39 | 12.62416 | 123.32343 | 34862 ft | 468 kts | 132° |
| 2026-05-07 12:40 | 12.58221 | 123.37400 | 34863 ft | 468 kts | 132° |
| 2026-05-07 12:40 | 12.54004 | 123.42484 | 34862 ft | 468 kts | 132° |
| 2026-05-07 12:41 | 12.49784 | 123.47566 | 34862 ft | 468 kts | 132° |
| 2026-05-07 12:41 | 12.45569 | 123.52642 | 34861 ft | 467 kts | 132° |
| 2026-05-07 12:42 | 12.41266 | 123.57621 | 34862 ft | 466 kts | 136° |
| 2026-05-07 12:42 | 12.36525 | 123.62078 | 34861 ft | 464 kts | 142° |
| 2026-05-07 12:43 | 12.31456 | 123.65859 | 34862 ft | 462 kts | 149° |
| 2026-05-07 12:43 | 12.25846 | 123.69167 | 34864 ft | 461 kts | 153° |
| 2026-05-07 12:44 | 12.20160 | 123.72298 | 34857 ft | 462 kts | 153° |
| 2026-05-07 12:44 | 12.14516 | 123.75404 | 34859 ft | 462 kts | 153° |
| 2026-05-07 12:45 | 12.08839 | 123.78533 | 34861 ft | 461 kts | 153° |
| 2026-05-07 12:45 | 12.03183 | 123.81649 | 34858 ft | 461 kts | 153° |
| 2026-05-07 12:46 | 11.97506 | 123.84776 | 34861 ft | 460 kts | 153° |
| 2026-05-07 12:46 | 11.91887 | 123.87868 | 34865 ft | 460 kts | 153° |
| 2026-05-07 12:47 | 11.86177 | 123.91009 | 34872 ft | 460 kts | 153° |
| 2026-05-07 12:47 | 11.80720 | 123.94010 | 34872 ft | 461 kts | 153° |
| 2026-05-07 12:48 | 11.75781 | 123.96726 | 34872 ft | 461 kts | 153° |
| 2026-05-07 12:48 | 11.70127 | 123.99835 | 34869 ft | 460 kts | 153° |
| 2026-05-07 12:49 | 11.64465 | 124.02944 | 34871 ft | 460 kts | 153° |
| 2026-05-07 12:49 | 11.58821 | 124.06042 | 34862 ft | 460 kts | 153° |
| 2026-05-07 12:50 | 11.53170 | 124.09143 | 34856 ft | 459 kts | 153° |
| 2026-05-07 12:50 | 11.47532 | 124.12236 | 34858 ft | 459 kts | 153° |
| 2026-05-07 12:51 | 11.41907 | 124.15321 | 34859 ft | 459 kts | 153° |
| 2026-05-07 12:51 | 11.36280 | 124.18404 | 34853 ft | 460 kts | 152° |
| 2026-05-07 12:52 | 11.30614 | 124.21508 | 34856 ft | 460 kts | 152° |
| 2026-05-07 12:52 | 11.24989 | 124.24589 | 34852 ft | 459 kts | 152° |
| 2026-05-07 12:53 | 11.19337 | 124.27682 | 34859 ft | 460 kts | 152° |
| 2026-05-07 12:53 | 11.13703 | 124.30763 | 34863 ft | 460 kts | 152° |
| 2026-05-07 12:54 | 11.08051 | 124.33855 | 34867 ft | 460 kts | 152° |
| 2026-05-07 12:54 | 11.02365 | 124.36932 | 34867 ft | 460 kts | 152° |
| 2026-05-07 12:55 | 10.96684 | 124.39986 | 34869 ft | 460 kts | 152° |
| 2026-05-07 12:55 | 10.91027 | 124.43032 | 34868 ft | 460 kts | 152° |
| 2026-05-07 12:56 | 10.85336 | 124.46095 | 34868 ft | 461 kts | 152° |
| 2026-05-07 12:56 | 10.79616 | 124.49174 | 34865 ft | 462 kts | 152° |
| 2026-05-07 12:57 | 10.73890 | 124.52265 | 34864 ft | 461 kts | 152° |
| 2026-05-07 12:57 | 10.68208 | 124.55353 | 34864 ft | 462 kts | 152° |
| 2026-05-07 12:58 | 10.62530 | 124.58438 | 34864 ft | 463 kts | 152° |
| 2026-05-07 12:58 | 10.56821 | 124.61536 | 34862 ft | 463 kts | 152° |
| 2026-05-07 12:59 | 10.51139 | 124.64619 | 34861 ft | 463 kts | 152° |
| 2026-05-07 12:59 | 10.45447 | 124.67705 | 34861 ft | 464 kts | 152° |
| 2026-05-07 13:00 | 10.41655 | 124.69762 | 34862 ft | 463 kts | 152° |
| 2026-05-07 13:00 | 10.35936 | 124.72860 | 34860 ft | 463 kts | 152° |
| 2026-05-07 13:01 | 10.28356 | 124.76966 | 34861 ft | 464 kts | 152° |
| 2026-05-07 13:01 | 10.22644 | 124.80058 | 34860 ft | 464 kts | 152° |
| 2026-05-07 13:02 | 10.16928 | 124.83152 | 34857 ft | 465 kts | 152° |
| 2026-05-07 13:02 | 10.11228 | 124.86235 | 34857 ft | 465 kts | 152° |
| 2026-05-07 13:03 | 10.05490 | 124.89337 | 34858 ft | 465 kts | 152° |
| 2026-05-07 13:03 | 9.99781 | 124.92421 | 34855 ft | 464 kts | 152° |
| 2026-05-07 13:04 | 9.94047 | 124.95520 | 34856 ft | 464 kts | 152° |
| 2026-05-07 13:04 | 9.88323 | 124.98612 | 34854 ft | 466 kts | 152° |
| 2026-05-07 13:05 | 9.82557 | 125.01726 | 34853 ft | 467 kts | 152° |
| 2026-05-07 13:05 | 9.76846 | 125.04806 | 34854 ft | 467 kts | 152° |
| 2026-05-07 13:06 | 9.71105 | 125.07900 | 34852 ft | 466 kts | 152° |
| 2026-05-07 13:06 | 9.65363 | 125.10991 | 34850 ft | 466 kts | 152° |
| 2026-05-07 13:07 | 9.59592 | 125.14096 | 34851 ft | 467 kts | 152° |
| 2026-05-07 13:07 | 9.53872 | 125.17148 | 34850 ft | 467 kts | 152° |
| 2026-05-07 13:08 | 9.48070 | 125.20239 | 34855 ft | 469 kts | 152° |
| 2026-05-07 13:08 | 9.42287 | 125.23319 | 34852 ft | 470 kts | 152° |
| 2026-05-07 13:09 | 9.36503 | 125.26402 | 34850 ft | 470 kts | 152° |
| 2026-05-07 13:09 | 9.30705 | 125.29491 | 34851 ft | 470 kts | 152° |
| 2026-05-07 13:10 | 9.24872 | 125.32596 | 34851 ft | 472 kts | 152° |
| 2026-05-07 13:10 | 9.19056 | 125.35693 | 34849 ft | 471 kts | 152° |
| 2026-05-07 13:11 | 9.13258 | 125.38776 | 34853 ft | 472 kts | 152° |
| 2026-05-07 13:11 | 9.07415 | 125.41882 | 34139 ft | 475 kts | 151° |
| 2026-05-07 13:12 | 9.04451 | 125.43456 | 33360 ft | 476 kts | 151° |
| 2026-05-07 13:12 | 9.01535 | 125.44938 | 32580 ft | 476 kts | 154° |
| 2026-05-07 13:12 | 8.98449 | 125.46267 | 31901 ft | 475 kts | 158° |
| 2026-05-07 13:12 | 8.95348 | 125.47360 | 31444 ft | 469 kts | 161° |
| 2026-05-07 13:13 | 8.92244 | 125.48228 | 30995 ft | 463 kts | 165° |
| 2026-05-07 13:13 | 8.89073 | 125.48891 | 30533 ft | 458 kts | 168° |
| 2026-05-07 13:13 | 8.85911 | 125.49338 | 30065 ft | 454 kts | 172° |
| 2026-05-07 13:13 | 8.82724 | 125.49673 | 29579 ft | 449 kts | 172° |
| 2026-05-07 13:14 | 8.79609 | 125.49983 | 29107 ft | 444 kts | 172° |
| 2026-05-07 13:14 | 8.76552 | 125.50285 | 28643 ft | 439 kts | 172° |
| 2026-05-07 13:14 | 8.73511 | 125.50588 | 28188 ft | 434 kts | 172° |
| 2026-05-07 13:14 | 8.70508 | 125.50890 | 27738 ft | 430 kts | 172° |
| 2026-05-07 13:15 | 8.67560 | 125.51190 | 27287 ft | 426 kts | 172° |
| 2026-05-07 13:15 | 8.64614 | 125.51489 | 26827 ft | 422 kts | 172° |
| 2026-05-07 13:15 | 8.61707 | 125.51784 | 26362 ft | 419 kts | 172° |
| 2026-05-07 13:15 | 8.58791 | 125.52078 | 25896 ft | 415 kts | 172° |
| 2026-05-07 13:16 | 8.55914 | 125.52370 | 25426 ft | 412 kts | 171° |
| 2026-05-07 13:16 | 8.53076 | 125.52657 | 24963 ft | 409 kts | 171° |
| 2026-05-07 13:16 | 8.50243 | 125.52930 | 24495 ft | 406 kts | 172° |
| 2026-05-07 13:16 | 8.47421 | 125.53184 | 24028 ft | 403 kts | 172° |
| 2026-05-07 13:17 | 8.44637 | 125.53429 | 23579 ft | 400 kts | 172° |
| 2026-05-07 13:17 | 8.41857 | 125.53675 | 23134 ft | 397 kts | 172° |
| 2026-05-07 13:17 | 8.39116 | 125.53920 | 22691 ft | 394 kts | 172° |
| 2026-05-07 13:17 | 8.36384 | 125.54164 | 22249 ft | 392 kts | 171° |
| 2026-05-07 13:18 | 8.33668 | 125.54408 | 21807 ft | 390 kts | 171° |
| 2026-05-07 13:18 | 8.30983 | 125.54649 | 21369 ft | 388 kts | 171° |
| 2026-05-07 13:18 | 8.28270 | 125.54894 | 20925 ft | 386 kts | 171° |
| 2026-05-07 13:18 | 8.25610 | 125.55132 | 20481 ft | 385 kts | 171° |
| 2026-05-07 13:19 | 8.22935 | 125.55372 | 20027 ft | 384 kts | 171° |
| 2026-05-07 13:19 | 8.20264 | 125.55613 | 19565 ft | 383 kts | 171° |
| 2026-05-07 13:19 | 8.17618 | 125.55849 | 19099 ft | 382 kts | 172° |
| 2026-05-07 13:19 | 8.14949 | 125.56089 | 18629 ft | 382 kts | 172° |
| 2026-05-07 13:20 | 8.12304 | 125.56325 | 18160 ft | 381 kts | 172° |
| 2026-05-07 13:20 | 8.09668 | 125.56562 | 17691 ft | 380 kts | 172° |
| 2026-05-07 13:20 | 8.07039 | 125.56798 | 17213 ft | 380 kts | 172° |
| 2026-05-07 13:20 | 8.04405 | 125.57032 | 16744 ft | 379 kts | 172° |
| 2026-05-07 13:21 | 8.01734 | 125.57270 | 16262 ft | 379 kts | 172° |
| 2026-05-07 13:21 | 7.99110 | 125.57502 | 15797 ft | 378 kts | 172° |
| 2026-05-07 13:21 | 7.96530 | 125.57827 | 15323 ft | 375 kts | 167° |
| 2026-05-07 13:21 | 7.93945 | 125.58339 | 14863 ft | 372 kts | 165° |
| 2026-05-07 13:22 | 7.91424 | 125.58901 | 14392 ft | 371 kts | 164° |
| 2026-05-07 13:22 | 7.88901 | 125.59470 | 13910 ft | 369 kts | 164° |
| 2026-05-07 13:22 | 7.86374 | 125.60042 | 13439 ft | 368 kts | 164° |
| 2026-05-07 13:22 | 7.83850 | 125.60612 | 12951 ft | 366 kts | 164° |
| 2026-05-07 13:23 | 7.81345 | 125.61173 | 12469 ft | 365 kts | 164° |
| 2026-05-07 13:23 | 7.78895 | 125.61720 | 12013 ft | 362 kts | 164° |
| 2026-05-07 13:23 | 7.76406 | 125.62278 | 11533 ft | 361 kts | 164° |
| 2026-05-07 13:23 | 7.73979 | 125.62821 | 11067 ft | 359 kts | 164° |
| 2026-05-07 13:24 | 7.71524 | 125.63369 | 10594 ft | 357 kts | 164° |
| 2026-05-07 13:24 | 7.69099 | 125.63911 | 10309 ft | 349 kts | 164° |
| 2026-05-07 13:24 | 7.66746 | 125.64436 | 10152 ft | 337 kts | 164° |
| 2026-05-07 13:24 | 7.64489 | 125.64938 | 10020 ft | 325 kts | 164° |
| 2026-05-07 13:25 | 7.62291 | 125.65429 | 9721 ft | 321 kts | 164° |
| 2026-05-07 13:25 | 7.60106 | 125.65918 | 9426 ft | 316 kts | 164° |
| 2026-05-07 13:25 | 7.57970 | 125.66396 | 9136 ft | 312 kts | 164° |
| 2026-05-07 13:25 | 7.55843 | 125.66873 | 8850 ft | 307 kts | 164° |
| 2026-05-07 13:26 | 7.53764 | 125.67338 | 8571 ft | 303 kts | 164° |
| 2026-05-07 13:26 | 7.51740 | 125.67791 | 8248 ft | 295 kts | 164° |
| 2026-05-07 13:26 | 7.49751 | 125.68235 | 7747 ft | 289 kts | 164° |
| 2026-05-07 13:26 | 7.47784 | 125.68674 | 7226 ft | 283 kts | 164° |
| 2026-05-07 13:27 | 7.45885 | 125.69099 | 6702 ft | 279 kts | 164° |
| 2026-05-07 13:27 | 7.44002 | 125.69521 | 6264 ft | 273 kts | 164° |
| 2026-05-07 13:27 | 7.42129 | 125.69939 | 5864 ft | 273 kts | 165° |
| 2026-05-07 13:27 | 7.40271 | 125.70356 | 5494 ft | 275 kts | 165° |
| 2026-05-07 13:28 | 7.38399 | 125.70776 | 5138 ft | 276 kts | 165° |
| 2026-05-07 13:28 | 7.36509 | 125.71199 | 4780 ft | 277 kts | 165° |
| 2026-05-07 13:28 | 7.34584 | 125.71629 | 4418 ft | 278 kts | 165° |
| 2026-05-07 13:28 | 7.32780 | 125.72305 | 4037 ft | 277 kts | 148° |
| 2026-05-07 13:29 | 7.31238 | 125.73438 | 3699 ft | 274 kts | 138° |
| 2026-05-07 13:29 | 7.29810 | 125.74682 | 3612 ft | 263 kts | 137° |
| 2026-05-07 13:29 | 7.28469 | 125.75862 | 3567 ft | 248 kts | 137° |
| 2026-05-07 13:29 | 7.27200 | 125.76975 | 3529 ft | 237 kts | 136° |
| 2026-05-07 13:30 | 7.25936 | 125.78041 | 3386 ft | 231 kts | 144° |
| 2026-05-07 13:30 | 7.24428 | 125.78524 | 3152 ft | 230 kts | 183° |
| 2026-05-07 13:30 | 7.23016 | 125.77909 | 3055 ft | 219 kts | 223° |
| 2026-05-07 13:30 | 7.22176 | 125.76680 | 2891 ft | 208 kts | 240° |
| 2026-05-07 13:31 | 7.21462 | 125.75453 | 2557 ft | 200 kts | 238° |
| 2026-05-07 13:31 | 7.20720 | 125.74331 | 2304 ft | 187 kts | 234° |
| 2026-05-07 13:31 | 7.19960 | 125.73307 | 2034 ft | 175 kts | 232° |
| 2026-05-07 13:31 | 7.19226 | 125.72387 | 1791 ft | 162 kts | 230° |
| 2026-05-07 13:32 | 7.18519 | 125.71537 | 1593 ft | 156 kts | 229° |
| 2026-05-07 13:32 | 7.17817 | 125.70711 | 1401 ft | 154 kts | 229° |
| 2026-05-07 13:32 | 7.17113 | 125.69892 | 1205 ft | 152 kts | 228° |
| 2026-05-07 13:32 | 7.16422 | 125.69092 | 1002 ft | 151 kts | 229° |
| 2026-05-07 13:33 | 7.15747 | 125.68289 | 806 ft | 149 kts | 229° |
| 2026-05-07 13:33 | 7.15076 | 125.67491 | 612 ft | 148 kts | 228° |
| 2026-05-07 13:33 | 7.14393 | 125.66701 | 429 ft | 146 kts | 227° |
| 2026-05-07 13:33 | 7.13718 | 125.65929 | 249 ft | 145 kts | 227° |
| 2026-05-07 13:34 | 7.13060 | 125.65168 | 119 ft | 137 kts | 228° |
| 2026-05-07 13:34 | 7.12311 | 125.64296 | 114 ft | 15 kts | 229° |
| 2026-05-07 13:34 | 7.12261 | 125.64220 | 114 ft | 7 kts | 205° |
| 2026-05-07 13:35 | 7.12260 | 125.64247 | 114 ft | 6 kts | 54° |
| 2026-05-07 13:35 | 7.12296 | 125.64283 | 114 ft | 7 kts | 44° |
| 2026-05-07 13:35 | 7.12343 | 125.64334 | 114 ft | 15 kts | 50° |
| 2026-05-07 13:35 | 7.12417 | 125.64423 | 114 ft | 16 kts | 49° |
| 2026-05-07 13:36 | 7.12494 | 125.64510 | 114 ft | 16 kts | 49° |
| 2026-05-07 13:36 | 7.12566 | 125.64551 | 114 ft | 11 kts | 348° |
| 2026-05-07 13:36 | 7.12635 | 125.64501 | 114 ft | 12 kts | 319° |
| 2026-05-07 13:36 | 7.12705 | 125.64448 | 114 ft | 12 kts | 343° |
| 2026-05-07 13:37 | 7.12777 | 125.64492 | 114 ft | 13 kts | 50° |
| 2026-05-07 13:37 | 7.12838 | 125.64563 | 114 ft | 13 kts | 49° |
| 2026-05-07 13:37 | 7.12898 | 125.64633 | 115 ft | 9 kts | 46° |
| 2026-05-07 13:37 | 7.12952 | 125.64632 | 115 ft | 9 kts | 320° |
| 2026-05-07 13:38 | 7.12990 | 125.64599 | 115 ft | 0 kts | 318° |